FZAA/FIH METAR and TAF weather

Enter ICAO airport designator
Station Type Date Time Source
FZAA METAR 2020/06/01 14:00 UTC NOAA

FZAA 011400Z 25006KT 6000 SCT016 BKN080 28/23 Q1012 NOSIG


Station Type Date Time Source
FZAA Decoded METAR 2020/06/01 14:00 UTC NOAA

Kinshasa / N'Djili, Congo, Democratic Republic of the (FZAA) 04-23S 015-26E 312M
Jun 01, 2020 - 10:00 AM EDT / 2020.06.01 1400 UTC
Wind: from the WSW (250 degrees) at 7 MPH (6 KT):0
Visibility: 3 mile(s):0
Sky conditions: mostly cloudy
Temperature: 82 F (28 C)
Dew Point: 73 F (23 C)
Relative Humidity: 74%
Pressure (altimeter): 29.88 in. Hg (1012 hPa)
ob: FZAA 011400Z 25006KT 6000 SCT016 BKN080 28/23 Q1012 NOSIG
cycle: 14

Station Type Date Time Source
FZAA TAF 2020/05/31 12:54 UTC NOAA

TAF TAF FZAA 311100Z 3112/0118 27008KT 7000 SCT018
TEMPO 0105/0109 4000 BR OVC015
BECMG 0112/0114 33010KT FEW020 FEW030CB

Example: see airport list